Aviation Digital Data Service (ADDS)

Output produced by METARs form (0305 UTC 29 May 2022)
found at http://www.aviationweather.gov/metar/data/
 
METAR text: RJSK 290200Z 27011KT 9999 FEW015 BKN020 20/15 Q1005
Conditions at: RJSK (AKITA AIRPORT , JP) observed 0200 UTC 29 May 2022
Temperature: 20.0°C (68°F)
Dewpoint: 15.0°C (59°F) [RH = 73%]
Pressure (altimeter): 29.68 inches Hg (1005.0 mb)
Winds: from the W (270 degrees) at 13 MPH (11 knots; 5.7 m/s)
Visibility: 6 or more miles (10+ km)
Ceiling: 2000 feet AGL
Clouds: few clouds at 1500 feet AGL
broken clouds at 2000 feet AGL
Weather: no significant weather observed at this time

METAR text: RJSK 290100Z 26010KT 9999 FEW015 SCT020 BKN/// 20/15 Q1005
Conditions at: RJSK (AKITA AIRPORT , JP) observed 0100 UTC 29 May 2022
Temperature: 20.0°C (68°F)
Dewpoint: 15.0°C (59°F) [RH = 73%]
Pressure (altimeter): 29.68 inches Hg (1005.0 mb)
Winds: from the W (260 degrees) at 12 MPH (10 knots; 5.1 m/s)
Visibility: 6 or more miles (10+ km)
Ceiling: at least 12,000 feet AGL
Clouds: few clouds at 1500 feet AGL
scattered clouds at 2000 feet AGL
Weather: no significant weather observed at this time

METAR text: RJSK 290000Z 27011KT 9999 SCT015 SCT/// 20/15 Q1005
Conditions at: RJSK (AKITA AIRPORT , JP) observed 0000 UTC 29 May 2022
Temperature: 20.0°C (68°F)
Dewpoint: 15.0°C (59°F) [RH = 73%]
Pressure (altimeter): 29.68 inches Hg (1005.0 mb)
Winds: from the W (270 degrees) at 13 MPH (11 knots; 5.7 m/s)
Visibility: 6 or more miles (10+ km)
Ceiling: at least 12,000 feet AGL
Clouds: scattered clouds at 1500 feet AGL
Weather: no significant weather observed at this time

METAR text: RJSK 282300Z 29009KT 9999 FEW015 SCT020 19/15 Q1005
Conditions at: RJSK (AKITA AIRPORT , JP) observed 2300 UTC 28 May 2022
Temperature: 19.0°C (66°F)
Dewpoint: 15.0°C (59°F) [RH = 78%]
Pressure (altimeter): 29.68 inches Hg (1005.0 mb)
Winds: from the WNW (290 degrees) at 10 MPH (9 knots; 4.6 m/s)
Visibility: 6 or more miles (10+ km)
Ceiling: at least 12,000 feet AGL
Clouds: few clouds at 1500 feet AGL
scattered clouds at 2000 feet AGL
Weather: no significant weather observed at this time

METAR text: RJSK 282200Z 30009KT 270V340 9999 FEW008 SCT010 17/14 Q1005
Conditions at: RJSK (AKITA AIRPORT , JP) observed 2200 UTC 28 May 2022
Temperature: 17.0°C (63°F)
Dewpoint: 14.0°C (57°F) [RH = 82%]
Pressure (altimeter): 29.68 inches Hg (1005.0 mb)
Winds: from the WNW (300 degrees) at 10 MPH (9 knots; 4.6 m/s)
Visibility: 6 or more miles (10+ km)
Ceiling: at least 12,000 feet AGL
Clouds: few clouds at 800 feet AGL
scattered clouds at 1000 feet AGL
Weather: no significant weather observed at this time

METAR text: RJSK 282140Z 29009KT 9999 FEW008 BKN010 17/14 Q1005 RMK 1ST008 5CU010 A2968
Conditions at: RJSK (AKITA AIRPORT , JP) observed 2140 UTC 28 May 2022
Temperature: 17.0°C (63°F)
Dewpoint: 14.0°C (57°F) [RH = 82%]
Pressure (altimeter): 29.68 inches Hg (1005.0 mb)
Winds: from the WNW (290 degrees) at 10 MPH (9 knots; 4.6 m/s)
Visibility: 6 or more miles (10+ km)
Ceiling: 1000 feet AGL
Clouds: few clouds at 800 feet AGL
broken clouds at 1000 feet AGL
Weather: no significant weather observed at this time

METAR text: RJSK 281200Z 26013KT 9999 -SHRA FEW007 SCT010 BKN015 16/14 Q1003
Conditions at: RJSK (AKITA AIRPORT , JP) observed 1200 UTC 28 May 2022
Temperature: 16.0°C (61°F)
Dewpoint: 14.0°C (57°F) [RH = 88%]
Pressure (altimeter): 29.62 inches Hg (1003.0 mb)
Winds: from the W (260 degrees) at 15 MPH (13 knots; 6.7 m/s)
Visibility: 6 or more miles (10+ km)
Ceiling: 1500 feet AGL
Clouds: few clouds at 700 feet AGL
scattered clouds at 1000 feet AGL
broken clouds at 1500 feet AGL
Weather: -SHRA  (light rain showers)

METAR text: RJSK 281100Z 26014KT 9999 -SHRA FEW010 SCT020 BKN050 15/13 Q1003
Conditions at: RJSK (AKITA AIRPORT , JP) observed 1100 UTC 28 May 2022
Temperature: 15.0°C (59°F)
Dewpoint: 13.0°C (55°F) [RH = 88%]
Pressure (altimeter): 29.62 inches Hg (1003.0 mb)
Winds: from the W (260 degrees) at 16 MPH (14 knots; 7.2 m/s)
Visibility: 6 or more miles (10+ km)
Ceiling: 5000 feet AGL
Clouds: few clouds at 1000 feet AGL
scattered clouds at 2000 feet AGL
broken clouds at 5000 feet AGL
Weather: -SHRA  (light rain showers)

METAR text: RJSK 281000Z 25010G20KT 210V280 9999 -SHRA FEW010 SCT050 BKN070 15/12 Q1003
Conditions at: RJSK (AKITA AIRPORT , JP) observed 1000 UTC 28 May 2022
Temperature: 15.0°C (59°F)
Dewpoint: 12.0°C (54°F) [RH = 82%]
Pressure (altimeter): 29.62 inches Hg (1003.0 mb)
Winds: from the WSW (250 degrees) at 12 MPH (10 knots; 5.1 m/s)
gusting to 23 MPH (20 knots; 10.3 m/s)
Visibility: 6 or more miles (10+ km)
Ceiling: 7000 feet AGL
Clouds: few clouds at 1000 feet AGL
scattered clouds at 5000 feet AGL
broken clouds at 7000 feet AGL
Weather: -SHRA  (light rain showers)

METAR text: RJSK 280900Z 26012KT 9999 FEW015 SCT020 BKN025 15/12 Q1002
Conditions at: RJSK (AKITA AIRPORT , JP) observed 0900 UTC 28 May 2022
Temperature: 15.0°C (59°F)
Dewpoint: 12.0°C (54°F) [RH = 82%]
Pressure (altimeter): 29.59 inches Hg (1002.0 mb)
Winds: from the W (260 degrees) at 14 MPH (12 knots; 6.2 m/s)
Visibility: 6 or more miles (10+ km)
Ceiling: 2500 feet AGL
Clouds: few clouds at 1500 feet AGL
scattered clouds at 2000 feet AGL
broken clouds at 2500 feet AGL
Weather: no significant weather observed at this time

METAR text: RJSK 280800Z 25014G24KT 9999 FEW015 SCT020 BKN025 15/12 Q1002
Conditions at: RJSK (AKITA AIRPORT , JP) observed 0800 UTC 28 May 2022
Temperature: 15.0°C (59°F)
Dewpoint: 12.0°C (54°F) [RH = 82%]
Pressure (altimeter): 29.59 inches Hg (1002.0 mb)
Winds: from the WSW (250 degrees) at 16 MPH (14 knots; 7.2 m/s)
gusting to 28 MPH (24 knots; 12.3 m/s)
Visibility: 6 or more miles (10+ km)
Ceiling: 2500 feet AGL
Clouds: few clouds at 1500 feet AGL
scattered clouds at 2000 feet AGL
broken clouds at 2500 feet AGL
Weather: no significant weather observed at this time

METAR text: RJSK 280700Z 26014KT 9999 FEW010 SCT020 BKN025 15/11 Q1002
Conditions at: RJSK (AKITA AIRPORT , JP) observed 0700 UTC 28 May 2022
Temperature: 15.0°C (59°F)
Dewpoint: 11.0°C (52°F) [RH = 77%]
Pressure (altimeter): 29.59 inches Hg (1002.0 mb)
Winds: from the W (260 degrees) at 16 MPH (14 knots; 7.2 m/s)
Visibility: 6 or more miles (10+ km)
Ceiling: 2500 feet AGL
Clouds: few clouds at 1000 feet AGL
scattered clouds at 2000 feet AGL
broken clouds at 2500 feet AGL
Weather: no significant weather observed at this time

METAR text: RJSK 280600Z 25013KT 9999 FEW010 SCT020 BKN080 16/12 Q1002
Conditions at: RJSK (AKITA AIRPORT , JP) observed 0600 UTC 28 May 2022
Temperature: 16.0°C (61°F)
Dewpoint: 12.0°C (54°F) [RH = 77%]
Pressure (altimeter): 29.59 inches Hg (1002.0 mb)
Winds: from the WSW (250 degrees) at 15 MPH (13 knots; 6.7 m/s)
Visibility: 6 or more miles (10+ km)
Ceiling: 8000 feet AGL
Clouds: few clouds at 1000 feet AGL
scattered clouds at 2000 feet AGL
broken clouds at 8000 feet AGL
Weather: no significant weather observed at this time

METAR text: RJSK 280500Z 26018KT 9999 VCSH FEW010 SCT040 BKN080 17/12 Q1001
Conditions at: RJSK (AKITA AIRPORT , JP) observed 0500 UTC 28 May 2022
Temperature: 17.0°C (63°F)
Dewpoint: 12.0°C (54°F) [RH = 72%]
Pressure (altimeter): 29.56 inches Hg (1001.0 mb)
Winds: from the W (260 degrees) at 21 MPH (18 knots; 9.3 m/s)
Visibility: 6 or more miles (10+ km)
Ceiling: 8000 feet AGL
Clouds: few clouds at 1000 feet AGL
scattered clouds at 4000 feet AGL
broken clouds at 8000 feet AGL
Weather: VCSH  (showers in vicinity)

METAR text: RJSK 280400Z 26020KT 9999 VCSH FEW010 SCT015 BKN025 17/13 Q1001
Conditions at: RJSK (AKITA AIRPORT , JP) observed 0400 UTC 28 May 2022
Temperature: 17.0°C (63°F)
Dewpoint: 13.0°C (55°F) [RH = 77%]
Pressure (altimeter): 29.56 inches Hg (1001.0 mb)
Winds: from the W (260 degrees) at 23 MPH (20 knots; 10.3 m/s)
Visibility: 6 or more miles (10+ km)
Ceiling: 2500 feet AGL
Clouds: few clouds at 1000 feet AGL
scattered clouds at 1500 feet AGL
broken clouds at 2500 feet AGL
Weather: VCSH  (showers in vicinity)

METAR text: RJSK 280300Z 27021KT 220V290 9999 SCT020 BKN025 17/11 Q1001
Conditions at: RJSK (AKITA AIRPORT , JP) observed 0300 UTC 28 May 2022
Temperature: 17.0°C (63°F)
Dewpoint: 11.0°C (52°F) [RH = 68%]
Pressure (altimeter): 29.56 inches Hg (1001.0 mb)
Winds: from the W (270 degrees) at 24 MPH (21 knots; 10.8 m/s)
Visibility: 6 or more miles (10+ km)
Ceiling: 2500 feet AGL
Clouds: scattered clouds at 2000 feet AGL
broken clouds at 2500 feet AGL
Weather: no significant weather observed at this time

METAR text: RJSK 280200Z 26018G31KT 9999 FEW015 BKN020 17/12 Q1000
Conditions at: RJSK (AKITA AIRPORT , JP) observed 0200 UTC 28 May 2022
Temperature: 17.0°C (63°F)
Dewpoint: 12.0°C (54°F) [RH = 72%]
Pressure (altimeter): 29.53 inches Hg (1000.0 mb)
Winds: from the W (260 degrees) at 21 MPH (18 knots; 9.3 m/s)
gusting to 36 MPH (31 knots; 15.9 m/s)
Visibility: 6 or more miles (10+ km)
Ceiling: 2000 feet AGL
Clouds: few clouds at 1500 feet AGL
broken clouds at 2000 feet AGL
Weather: no significant weather observed at this time

METAR text: RJSK 280100Z 26013KT 9999 VCSH FEW010 SCT015 BKN040 16/12 Q0999
Conditions at: RJSK (AKITA AIRPORT , JP) observed 0100 UTC 28 May 2022
Temperature: 16.0°C (61°F)
Dewpoint: 12.0°C (54°F) [RH = 77%]
Pressure (altimeter): 29.50 inches Hg (999.0 mb)
Winds: from the W (260 degrees) at 15 MPH (13 knots; 6.7 m/s)
Visibility: 6 or more miles (10+ km)
Ceiling: 4000 feet AGL
Clouds: few clouds at 1000 feet AGL
scattered clouds at 1500 feet AGL
broken clouds at 4000 feet AGL
Weather: VCSH  (showers in vicinity)

METAR text: RJSK 280000Z 27011KT 9999 VCSH FEW005 SCT015 BKN020 15/13 Q0999
Conditions at: RJSK (AKITA AIRPORT , JP) observed 0000 UTC 28 May 2022
Temperature: 15.0°C (59°F)
Dewpoint: 13.0°C (55°F) [RH = 88%]
Pressure (altimeter): 29.50 inches Hg (999.0 mb)
Winds: from the W (270 degrees) at 13 MPH (11 knots; 5.7 m/s)
Visibility: 6 or more miles (10+ km)
Ceiling: 2000 feet AGL
Clouds: few clouds at 500 feet AGL
scattered clouds at 1500 feet AGL
broken clouds at 2000 feet AGL
Weather: VCSH  (showers in vicinity)

METAR text: RJSK 272300Z 27010KT 9999 VCSH FEW005 SCT015 BKN025 16/13 Q0999
Conditions at: RJSK (AKITA AIRPORT , JP) observed 2300 UTC 27 May 2022
Temperature: 16.0°C (61°F)
Dewpoint: 13.0°C (55°F) [RH = 82%]
Pressure (altimeter): 29.50 inches Hg (999.0 mb)
Winds: from the W (270 degrees) at 12 MPH (10 knots; 5.1 m/s)
Visibility: 6 or more miles (10+ km)
Ceiling: 2500 feet AGL
Clouds: few clouds at 500 feet AGL
scattered clouds at 1500 feet AGL
broken clouds at 2500 feet AGL
Weather: VCSH  (showers in vicinity)

METAR text: RJSK 272200Z 26014G24KT 230V300 9999 -SHRA FEW008 SCT015 BKN020 16/13 Q0998
Conditions at: RJSK (AKITA AIRPORT , JP) observed 2200 UTC 27 May 2022
Temperature: 16.0°C (61°F)
Dewpoint: 13.0°C (55°F) [RH = 82%]
Pressure (altimeter): 29.47 inches Hg (998.0 mb)
Winds: from the W (260 degrees) at 16 MPH (14 knots; 7.2 m/s)
gusting to 28 MPH (24 knots; 12.3 m/s)
Visibility: 6 or more miles (10+ km)
Ceiling: 2000 feet AGL
Clouds: few clouds at 800 feet AGL
scattered clouds at 1500 feet AGL
broken clouds at 2000 feet AGL
Weather: -SHRA  (light rain showers)

METAR text: RJSK 272140Z 26008KT 9999 FEW010 SCT020 BKN025 16/13 Q0998 RMK 1ST010 3CU020 6CU025 A2949
Conditions at: RJSK (AKITA AIRPORT , JP) observed 2140 UTC 27 May 2022
Temperature: 16.0°C (61°F)
Dewpoint: 13.0°C (55°F) [RH = 82%]
Pressure (altimeter): 29.47 inches Hg (998.0 mb)
Winds: from the W (260 degrees) at 9 MPH (8 knots; 4.1 m/s)
Visibility: 6 or more miles (10+ km)
Ceiling: 2500 feet AGL
Clouds: few clouds at 1000 feet AGL
scattered clouds at 2000 feet AGL
broken clouds at 2500 feet AGL
Weather: no significant weather observed at this time

Forecast for: RJSK (AKITA AIRPORT , JP)
Text: TAF RJSK 282305Z 2900/3006 28013KT 9999 FEW020
Forecast period: 0000 to 1500 UTC 29 May 2022
Forecast type: FROM: standard forecast or significant change
Winds: from the W (280 degrees) at 15 MPH (13 knots; 6.7 m/s)
Visibility: 6 or more miles (10+ km)
Ceiling: at least 12,000 feet AGL
Clouds: few clouds at 2000 feet AGL
Weather: no significant weather forecast for this period
Text: TEMPO 2912/2915 FEW005 BKN008
Forecast period: 1200 to 1500 UTC 29 May 2022
Forecast type: TEMPORARY: The following changes expected for less than half the time period
Visibility: missing
Ceiling: 800 feet AGL
Clouds: few clouds at 500 feet AGL
broken clouds at 800 feet AGL
Weather: no significant weather forecast for this period
Text: BECMG 2915/2918 14004KT
Forecast period: 1500 UTC 29 May 2022 to 0000 UTC 30 May 2022
Forecast type: BECOMING: Conditions expected to become as follows by 1800 UTC 29 May 2022
Winds: from the SE (140 degrees) at 5 MPH (4 knots; 2.1 m/s)
Visibility: 6 or more miles (10+ km)
Ceiling: at least 12,000 feet AGL
Clouds: few clouds at 2000 feet AGL
Weather: no significant weather forecast for this period
Text: BECMG 3000/3003 30006KT
Forecast period: 0000 to 0600 UTC 30 May 2022
Forecast type: BECOMING: Conditions expected to become as follows by 0300 UTC 30 May 2022
Winds: from the WNW (300 degrees) at 7 MPH (6 knots; 3.1 m/s)
Visibility: 6 or more miles (10+ km)
Ceiling: at least 12,000 feet AGL
Clouds: few clouds at 2000 feet AGL
Weather: no significant weather forecast for this period